Time;durP1;ratioP1;P1;durP2;ratioP2;P2;SDS_P1;SDS_P2;PMS_P1;PMS_P2;Temp;Humidity;BMP_temperature;BMP_pressure;BME280_temperature;BME280_humidity;BME280_pressure;Samples;Min_cycle;Max_cycle;Signal;HPM_P1;HPM_P2
2022/06/14 00:00:57;;;;;;;7.00;4.15;;;;;;;20.68;64.18;94614.91;4160170;28;20501;-57
2022/06/14 00:02:59;;;;;;;5.67;4.17;;;;;;;20.69;63.94;94612.00;4159589;28;20114;-57
2022/06/14 00:05:00;;;;;;;5.45;4.20;;;;;;;20.71;64.12;94607.28;4163858;28;20065;-57
2022/06/14 00:07:02;;;;;;;4.88;3.90;;;;;;;20.73;64.03;94610.53;4167982;28;20053;-55
2022/06/14 00:09:04;;;;;;;4.50;4.07;;;;;;;20.72;64.19;94611.56;4172526;28;20060;-58
2022/06/14 00:11:27;;;;;;;6.05;3.70;;;;;;;20.68;63.91;94610.38;4158878;28;20477;-57
2022/06/14 00:13:29;;;;;;;7.43;4.10;;;;;;;20.64;64.08;94615.34;4158694;28;20080;-58
2022/06/14 00:15:31;;;;;;;6.50;4.43;;;;;;;20.60;64.30;94613.34;4168464;28;20410;-56
2022/06/14 00:17:33;;;;;;;5.72;4.03;;;;;;;20.50;64.29;94621.00;4161966;28;20049;-56
2022/06/14 00:19:35;;;;;;;6.10;3.67;;;;;;;20.40;64.62;94611.72;4162672;28;20078;-53
2022/06/14 00:21:36;;;;;;;10.50;4.13;;;;;;;20.34;64.64;94612.59;4158762;28;20620;-56
2022/06/14 00:23:39;;;;;;;4.53;3.83;;;;;;;20.31;64.85;94610.38;4159569;28;20533;-53
2022/06/14 00:25:43;;;;;;;5.95;4.20;;;;;;;20.32;64.75;94608.53;4158286;28;20142;-53
2022/06/14 00:27:45;;;;;;;5.85;3.75;;;;;;;20.32;64.83;94612.00;4159227;28;20069;-52
2022/06/14 00:29:47;;;;;;;5.15;3.90;;;;;;;20.36;64.82;94618.50;4159616;28;20504;-51
2022/06/14 00:31:48;;;;;;;7.05;3.88;;;;;;;20.36;64.81;94610.53;4169921;28;20049;-54
2022/06/14 00:33:50;;;;;;;4.65;3.90;;;;;;;20.43;64.65;94624.59;4159034;28;20208;-53
2022/06/14 00:35:59;;;;;;;9.02;3.95;;;;;;;20.44;64.60;94610.22;4158394;28;20504;-55
2022/06/14 00:38:01;;;;;;;5.57;4.20;;;;;;;20.42;64.59;94614.97;4159568;28;20520;-52
2022/06/14 00:40:05;;;;;;;7.90;4.18;;;;;;;20.45;64.65;94611.03;4160652;28;20053;-51
2022/06/14 00:42:17;;;;;;;9.55;4.45;;;;;;;20.46;64.46;94613.47;4162787;28;20468;-52
2022/06/14 00:44:22;;;;;;;6.03;3.75;;;;;;;20.44;64.53;94612.88;4175681;28;20408;-57
2022/06/14 00:46:28;;;;;;;6.78;4.43;;;;;;;20.24;65.06;94614.94;4168717;28;20045;-54
2022/06/14 00:48:32;;;;;;;4.55;3.97;;;;;;;19.98;65.79;94618.69;4166609;28;20137;-52
2022/06/14 00:50:34;;;;;;;;;;;;;;;19.79;66.76;94624.00;4160982;28;20079;-52
2022/06/14 00:53:04;;;;;;;6.78;4.35;;;;;;;19.70;67.00;94625.28;4174781;28;20412;-52
2022/06/14 00:55:30;;;;;;;5.60;4.25;;;;;;;19.47;67.76;94636.47;4159651;28;20095;-58
2022/06/14 00:57:43;;;;;;;7.80;4.20;;;;;;;19.46;67.88;94634.03;4163737;28;20539;-56
2022/06/14 00:59:48;;;;;;;5.68;4.35;;;;;;;19.51;67.97;94627.03;4171530;28;20049;-57
2022/06/14 01:01:53;;;;;;;6.05;4.40;;;;;;;19.56;67.55;94627.19;4160423;28;20418;-55
2022/06/14 01:04:18;;;;;;;7.15;4.25;;;;;;;19.68;67.30;94623.84;4157559;28;20053;-56
2022/06/14 01:06:38;;;;;;;6.63;4.50;;;;;;;19.75;67.09;94629.97;4164165;28;20053;-58
2022/06/14 01:08:47;;;;;;;5.18;4.63;;;;;;;19.83;67.34;94624.34;4172615;28;20053;-58
2022/06/14 01:10:48;;;;;;;5.60;4.28;;;;;;;19.90;67.18;94625.13;4161538;28;20421;-58
2022/06/14 01:12:55;;;;;;;5.57;4.63;;;;;;;19.96;66.94;94626.06;4168618;28;20049;-58
2022/06/14 01:15:20;;;;;;;7.88;5.18;;;;;;;19.97;66.91;94625.06;4155915;28;20062;-57
2022/06/14 01:17:22;;;;;;;7.50;4.65;;;;;;;20.00;66.69;94624.59;4172623;28;20053;-55
2022/06/14 01:19:25;;;;;;;5.32;4.20;;;;;;;20.04;66.61;94623.13;4173465;28;20053;-57
2022/06/14 01:21:28;;;;;;;5.95;4.20;;;;;;;20.04;66.12;94617.81;4175227;28;20468;-57
2022/06/14 01:23:30;;;;;;;6.68;4.40;;;;;;;20.06;65.93;94621.06;4174075;28;20520;-55
2022/06/14 01:25:37;;;;;;;6.60;4.00;;;;;;;20.05;66.03;94614.94;4161232;28;20081;-56
2022/06/14 01:27:40;;;;;;;5.55;4.40;;;;;;;20.05;66.16;94612.28;4156381;28;20104;-55
2022/06/14 01:29:45;;;;;;;6.43;4.80;;;;;;;20.03;66.21;94608.22;4160651;28;20052;-54
2022/06/14 01:31:48;;;;;;;7.47;4.28;;;;;;;20.02;66.24;94606.59;4169545;28;20413;-57
2022/06/14 01:33:56;;;;;;;8.77;4.88;;;;;;;19.97;66.29;94607.25;4157522;28;20453;-55
2022/06/14 01:36:02;;;;;;;5.88;4.40;;;;;;;19.97;66.40;94609.91;4158440;28;20484;-57
2022/06/14 01:38:10;;;;;;;6.47;5.05;;;;;;;19.99;66.25;94601.72;4164856;28;20118;-50
2022/06/14 01:40:12;;;;;;;5.20;4.63;;;;;;;19.99;66.15;94605.19;4159626;28;20207;-50
2022/06/14 01:42:55;;;;;;;5.82;4.43;;;;;;;19.99;66.56;94607.84;4163083;28;20053;-52
2022/06/14 01:45:00;;;;;;;8.38;4.28;;;;;;;19.99;66.77;94609.69;4159194;28;20139;-50
2022/06/14 01:47:05;;;;;;;7.78;4.88;;;;;;;19.90;66.86;94609.16;4157544;28;20572;-53
2022/06/14 01:52:11;;;;;;;7.03;4.50;;;;;;;18.99;69.75;94616.56;4161393;28;20140;-53
2022/06/14 01:54:12;;;;;;;6.47;4.95;;;;;;;18.90;70.38;94614.34;4159230;28;20065;-53
2022/06/14 01:57:04;;;;;;;10.23;5.40;;;;;;;19.02;70.08;94618.78;4172957;28;20071;-52
2022/06/14 01:59:30;;;;;;;6.57;4.80;;;;;;;19.14;69.53;94618.09;4181476;28;20479;-53
2022/06/14 02:02:09;;;;;;;8.35;4.97;;;;;;;19.22;68.92;94625.81;4189630;28;20053;-48
2022/06/14 02:04:38;;;;;;;4.88;4.13;;;;;;;19.19;68.21;94624.41;4191367;28;20044;-50
2022/06/14 02:06:58;;;;;;;8.23;5.22;;;;;;;19.22;68.14;94633.78;4184858;28;20048;-56
2022/06/14 02:09:08;;;;;;;8.23;5.28;;;;;;;19.13;68.84;94630.56;4168494;28;20146;-50
2022/06/14 02:11:19;;;;;;;8.55;5.38;;;;;;;18.99;69.38;94631.66;4170970;28;20076;-53
2022/06/14 02:13:47;;;;;;;9.27;5.65;;;;;;;18.92;69.59;94633.53;4189963;28;20121;-53
2022/06/14 02:16:30;;;;;;;7.82;5.47;;;;;;;18.98;69.66;94633.50;4175205;28;20101;-55
2022/06/14 02:19:16;;;;;;;8.40;5.68;;;;;;;19.12;69.61;94641.38;4122479;28;20503;-49
2022/06/14 02:21:26;;;;;;;6.70;5.65;;;;;;;19.19;69.04;94644.84;4102121;28;20055;-51
2022/06/14 02:23:30;;;;;;;8.18;5.43;;;;;;;19.15;68.86;94649.75;4103470;28;20056;-52
2022/06/14 02:25:46;;;;;;;9.65;5.20;;;;;;;19.13;69.00;94641.19;4109224;28;20134;-54
2022/06/14 02:27:58;;;;;;;6.22;5.05;;;;;;;19.16;69.03;94650.56;4125792;28;20435;-51
2022/06/14 02:30:24;;;;;;;7.88;5.88;;;;;;;19.22;69.22;94649.72;4112576;28;20978;-51
2022/06/14 02:32:31;;;;;;;7.78;4.90;;;;;;;19.24;68.64;94653.78;4109776;28;20495;-52
2022/06/14 02:34:38;;;;;;;6.57;5.13;;;;;;;19.30;68.42;94653.97;4090516;28;20051;-50
2022/06/14 02:36:52;;;;;;;7.95;5.78;;;;;;;19.30;68.38;94660.09;4105264;28;20047;-50
2022/06/14 02:38:58;;;;;;;;;;;;;;;19.32;68.27;94657.22;4109708;28;20129;-51
2022/06/14 02:41:04;;;;;;;7.18;5.07;;;;;;;19.34;68.13;94652.50;4092046;28;19933;-50
2022/06/14 02:43:14;;;;;;;11.82;6.00;;;;;;;19.28;68.48;94658.69;4099964;28;20059;-51
2022/06/14 02:45:29;;;;;;;9.02;6.68;;;;;;;18.96;70.01;94678.03;4079046;28;20055;-56
2022/06/14 02:47:31;;;;;;;6.97;5.97;;;;;;;18.62;71.61;94668.53;4080414;29;21241;-52
2022/06/14 02:49:44;;;;;;;10.50;6.15;;;;;;;18.54;72.12;94674.06;4125138;28;20069;-51
2022/06/14 02:52:07;;;;;;;6.43;5.82;;;;;;;18.60;72.01;94673.25;4162108;28;20053;-51
2022/06/14 02:54:33;;;;;;;11.20;6.13;;;;;;;18.71;71.81;94667.28;4160587;28;20500;-53
2022/06/14 02:56:44;;;;;;;7.05;6.10;;;;;;;18.87;71.24;94675.84;4167987;28;20103;-54
2022/06/14 02:58:55;;;;;;;7.75;5.85;;;;;;;18.98;70.99;94669.88;4161975;28;20076;-51
2022/06/14 03:01:02;;;;;;;7.72;6.07;;;;;;;19.02;70.47;94665.75;4169636;28;20053;-51
2022/06/14 03:03:09;;;;;;;7.68;6.35;;;;;;;19.09;70.33;94658.56;4158933;28;20049;-50
2022/06/14 03:05:32;;;;;;;8.30;5.85;;;;;;;19.16;69.90;94667.31;4161589;28;20455;-54
2022/06/14 03:07:48;;;;;;;8.55;6.97;;;;;;;18.92;70.57;94671.50;4164418;28;20079;-52
2022/06/14 03:09:50;;;;;;;9.80;6.38;;;;;;;18.55;71.81;94673.88;4167325;28;20056;-52
2022/06/14 03:12:05;;;;;;;9.30;6.63;;;;;;;18.35;72.99;94678.44;4164023;28;20054;-53
2022/06/14 03:14:58;;;;;;;11.35;7.30;;;;;;;18.04;74.22;94677.22;4173489;28;20112;-50
2022/06/14 03:17:34;;;;;;;15.32;7.50;;;;;;;18.10;74.72;94687.03;4162266;28;20560;-49
2022/06/14 03:20:05;;;;;;;8.43;6.53;;;;;;;18.20;74.77;94690.06;4169219;28;20720;-52
2022/06/14 03:22:16;;;;;;;14.15;6.97;;;;;;;18.33;74.32;94683.13;4158739;28;20112;-53
2022/06/14 03:24:45;;;;;;;8.35;7.15;;;;;;;18.52;73.78;94681.41;4171765;28;20206;-53
2022/06/14 03:26:52;;;;;;;8.98;6.95;;;;;;;18.69;73.29;94681.78;4167276;28;20101;-54
2022/06/14 03:29:12;;;;;;;14.13;7.22;;;;;;;18.81;72.82;94686.25;4176246;28;20341;-52
2022/06/14 03:31:34;;;;;;;9.95;6.90;;;;;;;18.78;72.78;94676.06;4171755;28;20092;-56
2022/06/14 03:33:47;;;;;;;9.45;7.07;;;;;;;18.84;72.71;94679.72;4159895;28;20061;-53
2022/06/14 03:35:52;;;;;;;10.48;6.88;;;;;;;18.90;72.61;94676.22;4159559;28;20045;-51
2022/06/14 03:37:54;;;;;;;11.40;7.13;;;;;;;18.99;72.02;94677.63;4175073;28;20494;-50
2022/06/14 03:40:00;;;;;;;8.48;7.30;;;;;;;19.08;72.04;94680.84;4168974;28;20502;-51
2022/06/14 03:42:04;;;;;;;9.73;6.70;;;;;;;19.14;71.69;94674.66;4162326;28;20049;-50
2022/06/14 03:44:06;;;;;;;9.25;6.13;;;;;;;19.24;71.34;94676.88;4163924;28;20492;-49
2022/06/14 03:46:36;;;;;;;10.93;6.65;;;;;;;19.33;70.78;94678.25;4168135;28;20050;-50
2022/06/14 03:48:41;;;;;;;8.23;6.57;;;;;;;19.42;70.51;94673.47;4169931;28;20522;-51
2022/06/14 03:50:50;;;;;;;8.68;7.45;;;;;;;19.47;70.21;94675.50;4169931;28;20110;-52
2022/06/14 03:52:55;;;;;;;13.15;7.03;;;;;;;19.53;70.13;94687.91;4168041;28;20046;-53
2022/06/14 03:55:12;;;;;;;11.73;7.18;;;;;;;19.58;69.90;94685.44;4172847;28;20256;-50
2022/06/14 03:57:32;;;;;;;10.18;6.80;;;;;;;19.62;69.59;94689.31;4163569;28;20049;-50
2022/06/14 03:59:44;;;;;;;12.88;7.65;;;;;;;19.67;69.76;94692.13;4168433;28;20429;-51
2022/06/14 04:01:54;;;;;;;8.65;6.35;;;;;;;19.72;69.68;94694.97;4169026;28;20045;-50
2022/06/14 04:04:17;;;;;;;12.93;7.35;;;;;;;19.75;69.48;94685.78;4163567;28;20057;-51
2022/06/14 04:06:37;;;;;;;10.98;7.85;;;;;;;19.72;69.22;94694.16;4167163;28;20596;-47
2022/06/14 04:09:07;;;;;;;9.40;7.55;;;;;;;19.56;69.62;94688.31;4169458;28;20055;-51
2022/06/14 04:11:15;;;;;;;11.73;8.30;;;;;;;19.44;69.64;94690.03;4158025;28;20060;-54
2022/06/14 04:13:42;;;;;;;14.80;7.95;;;;;;;19.14;70.69;94695.91;4166415;28;20091;-52
2022/06/14 04:15:50;;;;;;;13.85;9.15;;;;;;;19.17;71.04;94700.81;4162963;28;20258;-53
2022/06/14 04:17:58;;;;;;;14.35;10.38;;;;;;;19.19;71.02;94697.94;4157934;28;20588;-49
2022/06/14 04:20:02;;;;;;;19.02;13.80;;;;;;;19.23;70.88;94704.47;4163069;28;20053;-51
2022/06/14 04:22:35;;;;;;;15.98;11.60;;;;;;;19.37;70.97;94694.56;4168385;28;20111;-53
2022/06/14 04:25:02;;;;;;;13.95;10.57;;;;;;;19.67;69.81;94694.78;4157581;28;20045;-53
2022/06/14 04:27:35;;;;;;;14.25;10.60;;;;;;;19.94;69.13;94694.59;4168427;28;20061;-52
2022/06/14 04:29:55;;;;;;;10.90;9.35;;;;;;;20.09;68.13;94695.09;4159245;28;20433;-50
2022/06/14 04:32:19;;;;;;;12.15;10.77;;;;;;;20.24;67.79;94710.69;4162659;28;20072;-50
2022/06/14 04:34:28;;;;;;;19.25;11.52;;;;;;;20.32;67.53;94706.97;4171787;28;20103;-50
2022/06/14 04:36:44;;;;;;;18.05;12.23;;;;;;;20.38;67.26;94708.75;4169582;28;20053;-50
2022/06/14 04:39:04;;;;;;;22.60;13.80;;;;;;;20.29;67.37;94704.75;4161434;28;20328;-50
2022/06/14 04:41:12;;;;;;;30.05;19.60;;;;;;;20.22;67.46;94705.63;4156354;28;20502;-49
2022/06/14 04:43:20;;;;;;;28.85;19.33;;;;;;;20.24;67.56;94706.22;4156331;28;20395;-48
2022/06/14 04:45:32;;;;;;;30.30;23.95;;;;;;;20.24;67.76;94710.69;4171244;28;20083;-49
2022/06/14 04:47:40;;;;;;;33.42;27.42;;;;;;;20.10;68.26;94714.53;4170425;28;20063;-52
2022/06/14 04:49:46;;;;;;;37.53;26.63;;;;;;;20.11;68.40;94710.81;4163031;28;20167;-54
2022/06/14 04:52:01;;;;;;;30.33;24.55;;;;;;;19.94;68.93;94716.69;4164829;28;20592;-50
2022/06/14 04:54:16;;;;;;;37.03;23.77;;;;;;;19.95;69.23;94718.31;4171133;28;20130;-55
2022/06/14 04:56:22;;;;;;;31.38;21.00;;;;;;;20.11;69.05;94719.63;4157142;28;20580;-57
2022/06/14 04:58:30;;;;;;;24.10;19.10;;;;;;;20.21;68.52;94714.63;4160341;28;20041;-49
2022/06/14 05:00:36;;;;;;;29.42;17.27;;;;;;;20.34;68.64;94721.66;4167516;28;20122;-50
2022/06/14 05:02:41;;;;;;;21.25;14.43;;;;;;;20.30;68.40;94725.78;4170108;28;20057;-51
2022/06/14 05:04:47;;;;;;;18.52;13.20;;;;;;;20.17;69.29;94725.91;4173133;28;20338;-52
2022/06/14 05:06:57;;;;;;;15.75;12.80;;;;;;;20.14;69.30;94731.69;4167854;28;20115;-50
2022/06/14 05:09:04;;;;;;;16.35;11.95;;;;;;;20.20;69.55;94731.63;4159388;28;20052;-51
2022/06/14 05:11:22;;;;;;;12.65;9.95;;;;;;;20.23;69.17;94735.69;4174548;28;20130;-52
2022/06/14 05:13:52;;;;;;;17.73;10.15;;;;;;;20.23;69.66;94736.50;4173922;28;20520;-52
2022/06/14 05:16:03;;;;;;;18.88;10.48;;;;;;;20.39;69.26;94732.47;4163723;28;20060;-51
2022/06/14 05:18:42;;;;;;;14.55;8.15;;;;;;;20.55;68.56;94728.44;4158125;28;20046;-53
2022/06/14 05:20:50;;;;;;;12.90;8.60;;;;;;;20.72;68.08;94731.34;4171253;28;20209;-52
2022/06/14 05:22:56;;;;;;;15.52;7.72;;;;;;;20.82;67.24;94730.81;4168001;28;20061;-53
2022/06/14 05:24:58;;;;;;;9.70;6.20;;;;;;;20.83;66.69;94740.47;4176604;28;20490;-51
2022/06/14 05:27:25;;;;;;;13.57;7.65;;;;;;;20.91;66.73;94737.50;4168735;28;20046;-52
2022/06/14 05:29:55;;;;;;;19.83;7.82;;;;;;;20.96;66.86;94745.63;4167115;28;20065;-53
2022/06/14 05:32:10;;;;;;;9.90;7.07;;;;;;;20.91;67.05;94737.50;4170285;28;20056;-52
2022/06/14 05:34:19;;;;;;;7.47;6.35;;;;;;;20.92;67.00;94755.09;4165194;28;20151;-54
2022/06/14 05:36:42;;;;;;;9.23;5.53;;;;;;;20.91;66.69;94755.31;4169912;28;20084;-51
2022/06/14 05:39:05;;;;;;;6.40;5.60;;;;;;;20.81;66.61;94763.81;4164284;28;20057;-49
2022/06/14 05:41:13;;;;;;;7.82;5.15;;;;;;;20.66;66.87;94766.84;4176394;28;20052;-54
2022/06/14 05:43:36;;;;;;;8.82;5.03;;;;;;;20.68;67.36;94758.66;4162944;28;20502;-54
2022/06/14 05:45:43;;;;;;;7.93;5.40;;;;;;;20.73;67.04;94759.59;4169751;28;20053;-47
2022/06/14 05:47:49;;;;;;;11.48;5.38;;;;;;;20.73;66.88;94764.91;4161932;28;20543;-50
2022/06/14 05:49:55;;;;;;;9.95;5.53;;;;;;;20.76;67.01;94766.34;4168787;28;20091;-49
2022/06/14 05:52:29;;;;;;;10.57;4.82;;;;;;;20.66;66.91;94769.50;4174143;28;20083;-50
2022/06/14 05:54:35;;;;;;;6.35;5.75;;;;;;;20.55;67.52;94778.19;4172456;28;20130;-53
2022/06/14 05:56:56;;;;;;;8.32;5.28;;;;;;;20.55;67.64;94779.00;4176629;28;20052;-53
2022/06/14 05:59:09;;;;;;;8.23;5.90;;;;;;;20.62;67.73;94781.63;4162219;28;20469;-50
2022/06/14 06:01:21;;;;;;;8.95;5.53;;;;;;;20.51;67.44;94777.00;4159985;28;20060;-48
2022/06/14 06:03:45;;;;;;;11.82;5.70;;;;;;;20.45;67.80;94776.81;4165660;28;20056;-52
2022/06/14 06:05:51;;;;;;;8.38;5.60;;;;;;;20.62;67.59;94770.97;4162083;28;20063;-51
2022/06/14 06:08:07;;;;;;;7.05;5.35;;;;;;;20.80;66.99;94771.00;4163088;28;20127;-53
2022/06/14 06:10:15;;;;;;;5.68;5.05;;;;;;;20.94;66.47;94778.84;4159526;28;20054;-53
2022/06/14 06:12:28;;;;;;;8.95;5.60;;;;;;;21.00;65.71;94778.78;4173898;28;20610;-54
2022/06/14 06:14:37;;;;;;;7.32;5.72;;;;;;;21.05;66.17;94780.78;4174989;28;20142;-54
2022/06/14 06:18:57;;;;;;;8.77;5.80;;;;;;;21.09;66.03;94789.13;4173813;28;20265;-53
2022/06/14 06:21:15;;;;;;;12.48;6.30;;;;;;;20.94;66.39;94794.81;4172876;28;20486;-50
2022/06/14 06:23:25;;;;;;;8.20;6.25;;;;;;;20.91;66.52;94784.59;4162568;28;20057;-52
2022/06/14 06:25:29;;;;;;;7.90;6.03;;;;;;;20.95;66.87;94791.13;4164768;28;20054;-51
2022/06/14 06:27:47;;;;;;;11.03;6.17;;;;;;;20.99;66.76;94792.31;4166672;28;20057;-52
2022/06/14 06:29:54;;;;;;;10.18;6.75;;;;;;;21.04;66.59;94795.94;4167116;28;20068;-51
2022/06/14 06:31:56;;;;;;;8.60;5.95;;;;;;;21.06;66.49;94801.06;4161526;28;20060;-54
2022/06/14 06:34:01;;;;;;;10.45;7.25;;;;;;;21.13;66.74;94791.13;4162870;28;20665;-49
2022/06/14 06:36:02;;;;;;;10.90;6.30;;;;;;;21.18;66.14;94788.59;4162226;28;20123;-51
2022/06/14 06:38:32;;;;;;;13.52;6.45;;;;;;;21.36;65.82;94786.97;4167322;28;20041;-52
2022/06/14 06:40:34;;;;;;;9.55;5.82;;;;;;;21.44;65.02;94795.50;4165798;28;20103;-53
2022/06/14 06:42:42;;;;;;;11.77;6.57;;;;;;;21.46;65.45;94797.94;4164249;28;20087;-50
2022/06/14 06:44:50;;;;;;;7.45;5.88;;;;;;;21.55;65.14;94801.09;4160347;28;20048;-52
2022/06/14 06:47:17;;;;;;;10.13;6.55;;;;;;;21.37;64.95;94800.06;4161252;28;20115;-52
2022/06/14 06:49:24;;;;;;;8.32;7.00;;;;;;;21.37;65.14;94799.25;4164836;28;20075;-51
2022/06/14 06:51:36;;;;;;;8.15;6.38;;;;;;;21.13;65.73;94804.44;4158915;28;20536;-52
2022/06/14 06:53:41;;;;;;;11.07;6.30;;;;;;;21.22;65.94;94807.63;4168363;28;20520;-51
2022/06/14 06:55:59;;;;;;;6.10;5.50;;;;;;;21.23;65.76;94807.41;4163650;28;20108;-51
2022/06/14 06:58:05;;;;;;;10.93;6.78;;;;;;;21.04;66.66;94814.59;4161931;28;20051;-51
2022/06/14 07:00:09;;;;;;;10.45;6.10;;;;;;;20.80;67.45;94815.44;4161984;28;20114;-51
2022/06/14 07:02:16;;;;;;;6.53;5.88;;;;;;;20.94;67.72;94816.94;4168192;28;20505;-53
2022/06/14 07:04:19;;;;;;;10.38;6.18;;;;;;;20.98;66.69;94820.78;4172270;28;20114;-51
2022/06/14 07:06:26;;;;;;;8.73;5.13;;;;;;;20.87;66.45;94816.19;4172582;28;20064;-50
2022/06/14 07:08:41;;;;;;;8.93;6.10;;;;;;;21.07;65.89;94815.97;4159983;28;20330;-51
2022/06/14 07:10:49;;;;;;;7.35;5.68;;;;;;;21.27;64.75;94813.94;4157690;28;20080;-53
2022/06/14 07:12:52;;;;;;;7.55;6.07;;;;;;;21.47;64.53;94810.25;4172814;28;20590;-51
2022/06/14 07:15:05;;;;;;;10.70;6.20;;;;;;;21.65;64.38;94812.88;4166972;28;20053;-52
2022/06/14 07:17:24;;;;;;;8.13;5.78;;;;;;;21.75;63.73;94808.88;4163487;28;20092;-54
2022/06/14 07:19:44;;;;;;;8.63;5.60;;;;;;;21.87;63.61;94812.38;4163333;28;20048;-53
2022/06/14 07:21:57;;;;;;;8.48;5.65;;;;;;;21.92;63.19;94812.53;4173322;28;20130;-53
2022/06/14 07:23:58;;;;;;;12.00;5.55;;;;;;;21.96;63.30;94804.88;4166345;28;20050;-52
2022/06/14 07:26:22;;;;;;;10.10;5.78;;;;;;;22.06;63.05;94810.47;4172931;28;20468;-53
2022/06/14 07:28:37;;;;;;;5.80;4.93;;;;;;;22.12;62.41;94814.09;4161919;28;20147;-55
2022/06/14 07:30:46;;;;;;;8.23;6.20;;;;;;;22.24;62.37;94809.59;4167105;28;20071;-53
2022/06/14 07:32:51;;;;;;;8.77;5.75;;;;;;;22.34;62.41;94812.53;4163062;28;20057;-55
2022/06/14 07:34:53;;;;;;;12.32;6.43;;;;;;;22.37;61.92;94812.09;4164223;28;20131;-51
2022/06/14 07:37:01;;;;;;;21.45;10.45;;;;;;;22.36;62.25;94818.44;4171888;28;20057;-50
2022/06/14 07:39:17;;;;;;;10.68;5.00;;;;;;;22.29;61.53;94818.56;4161755;28;20041;-53
2022/06/14 07:41:23;;;;;;;7.30;4.97;;;;;;;22.35;61.53;94816.84;4169637;28;20545;-52
2022/06/14 07:43:29;;;;;;;6.30;4.53;;;;;;;22.40;61.27;94811.63;4169866;28;20052;-53
2022/06/14 07:45:46;;;;;;;6.18;4.80;;;;;;;22.48;61.32;94824.63;4161979;28;20518;-53
2022/06/14 07:47:55;;;;;;;11.43;5.00;;;;;;;22.62;60.42;94821.75;4169717;28;20054;-52
2022/06/14 07:50:14;;;;;;;10.98;7.28;;;;;;;22.81;60.49;94811.78;4165467;28;20418;-53
2022/06/14 07:52:21;;;;;;;7.80;4.80;;;;;;;22.96;60.37;94819.31;4165696;28;20049;-50
2022/06/14 07:54:28;;;;;;;9.98;5.50;;;;;;;23.04;60.24;94829.69;4160956;28;20173;-49
2022/06/14 07:56:32;;;;;;;7.55;4.68;;;;;;;23.09;59.76;94824.44;4165338;28;20110;-54
2022/06/14 07:58:42;;;;;;;13.20;5.60;;;;;;;23.34;59.32;94824.19;4160832;28;20056;-54
2022/06/14 08:03:17;;;;;;;8.10;5.13;;;;;;;23.70;58.89;94825.72;4166049;28;20331;-53
2022/06/14 08:05:23;;;;;;;11.00;4.75;;;;;;;23.71;58.85;94821.16;4163294;28;20053;-51
2022/06/14 08:07:32;;;;;;;7.10;5.93;;;;;;;23.60;59.10;94817.47;4239897;27;20353;-54
2022/06/14 08:09:43;;;;;;;7.43;5.18;;;;;;;23.46;58.90;94819.59;4235744;27;20578;-51
2022/06/14 08:11:56;;;;;;;9.48;5.30;;;;;;;23.35;59.63;94814.28;4214474;28;20565;-53
2022/06/14 08:14:02;;;;;;;;;;;;;;;23.25;58.88;94817.56;4224990;28;20060;-56
2022/06/14 08:16:06;;;;;;;6.15;5.53;;;;;;;22.62;57.79;94827.09;4236298;27;20257;-57
2022/06/14 08:18:15;;;;;;;5.68;4.78;;;;;;;22.46;57.56;94821.38;4204164;28;20044;-53
2022/06/14 08:20:26;;;;;;;7.13;4.90;;;;;;;22.71;58.61;94820.34;4204373;28;20052;-58
2022/06/14 08:22:33;;;;;;;6.07;4.97;;;;;;;22.88;59.11;94804.44;4209486;28;20055;-53
2022/06/14 08:24:49;;;;;;;7.57;4.15;;;;;;;23.21;57.77;94806.53;4224202;27;20040;-53
2022/06/14 08:27:01;;;;;;;5.97;4.97;;;;;;;23.26;56.59;94809.31;4203055;28;20049;-53
2022/06/14 08:29:26;;;;;;;5.78;4.43;;;;;;;23.22;56.72;94800.13;4222623;28;20492;-51
2022/06/14 08:32:06;;;;;;;9.40;4.65;;;;;;;23.43;56.53;94795.22;4190254;28;20045;-51
2022/06/14 08:34:13;;;;;;;7.35;4.95;;;;;;;23.59;56.67;94793.66;4213129;28;20052;-49
2022/06/14 08:36:19;;;;;;;11.45;5.10;;;;;;;23.60;55.54;94797.97;4220914;28;20180;-52
2022/06/14 08:38:31;;;;;;;6.47;5.13;;;;;;;23.64;55.13;94799.09;4191976;28;20166;-55
2022/06/14 08:40:54;;;;;;;7.95;5.03;;;;;;;23.83;55.20;94800.56;4203651;28;20105;-50
2022/06/14 08:43:02;;;;;;;6.10;5.47;;;;;;;23.82;55.26;94798.13;4204059;28;20071;-51
2022/06/14 08:45:35;;;;;;;5.88;4.60;;;;;;;23.83;54.53;94797.91;4221537;28;20062;-54
2022/06/14 08:48:03;;;;;;;8.88;3.97;;;;;;;23.71;54.61;94803.25;4213105;28;20421;-51
2022/06/14 08:50:09;;;;;;;5.70;4.22;;;;;;;23.26;55.66;94793.28;4216786;28;20461;-55
2022/06/14 08:52:39;;;;;;;7.85;4.82;;;;;;;23.25;57.69;94802.34;4221625;28;20104;-52
2022/06/14 08:55:10;;;;;;;7.18;4.70;;;;;;;23.46;58.15;94795.53;4221122;28;20482;-54
2022/06/14 08:57:18;;;;;;;;;;;;;;;23.72;57.89;94801.38;4222794;28;20743;-54
2022/06/14 08:59:47;;;;;;;7.43;5.00;;;;;;;23.80;56.77;94801.03;4212261;28;19969;-51
2022/06/14 09:01:55;;;;;;;9.52;4.53;;;;;;;23.90;56.00;94797.75;4236059;28;20051;-54
2022/06/14 09:04:32;;;;;;;5.40;4.47;;;;;;;23.77;55.49;94796.19;4220317;28;20052;-51
2022/06/14 09:06:40;;;;;;;5.68;4.55;;;;;;;23.70;55.31;94796.28;4227234;28;20055;-53
2022/06/14 09:08:50;;;;;;;6.32;4.03;;;;;;;23.65;55.11;94793.50;4237960;28;20047;-51
2022/06/14 09:11:10;;;;;;;5.57;4.05;;;;;;;23.81;54.94;94797.34;4234929;28;20044;-49
2022/06/14 09:13:19;;;;;;;10.13;4.78;;;;;;;23.94;55.57;94806.94;4203800;28;20360;-54
2022/06/14 09:15:52;;;;;;;5.38;4.28;;;;;;;23.86;54.88;94796.59;4220083;28;20044;-54
2022/06/14 09:18:35;;;;;;;4.80;3.50;;;;;;;23.63;54.88;94798.28;4204963;28;20068;-55
2022/06/14 09:20:55;;;;;;;6.97;4.25;;;;;;;23.73;55.04;94804.91;4210050;28;20469;-52
2022/06/14 09:22:57;;;;;;;8.60;4.65;;;;;;;23.56;55.21;94800.28;4198170;28;20685;-51
2022/06/14 09:25:54;;;;;;;7.57;4.20;;;;;;;23.41;54.73;94816.03;4209468;28;20496;-53
2022/06/14 09:28:11;;;;;;;6.28;4.85;;;;;;;23.29;55.54;94803.47;4196852;28;20051;-53
2022/06/14 09:30:31;;;;;;;8.95;4.68;;;;;;;23.64;55.62;94791.91;4200499;28;20132;-53
2022/06/14 09:33:09;;;;;;;5.57;4.30;;;;;;;23.91;54.11;94799.38;4175470;28;20056;-49
2022/06/14 09:35:43;;;;;;;6.10;5.07;;;;;;;24.18;54.20;94785.38;4200345;28;20060;-52
2022/06/14 09:38:20;;;;;;;6.90;4.10;;;;;;;24.44;51.95;94791.97;4209497;28;20048;-54
2022/06/14 09:40:49;;;;;;;18.08;4.75;;;;;;;24.50;52.39;94789.16;4189620;28;20053;-50
2022/06/14 09:43:15;;;;;;;9.18;5.55;;;;;;;24.08;53.92;94805.56;4201133;28;20509;-53
2022/06/14 09:45:52;;;;;;;7.25;5.15;;;;;;;23.84;54.78;94796.03;4208844;28;20060;-52
2022/06/14 09:48:16;;;;;;;8.60;5.18;;;;;;;23.91;54.35;94802.84;4204821;28;20457;-51
2022/06/14 09:50:56;;;;;;;6.10;4.38;;;;;;;24.08;54.83;94808.22;4209511;28;20055;-49
2022/06/14 09:53:16;;;;;;;6.13;4.00;;;;;;;24.21;54.55;94800.97;4136912;28;20494;-50
2022/06/14 09:55:46;;;;;;;9.30;4.22;;;;;;;24.40;53.62;94794.31;4176852;28;20048;-53
2022/06/14 09:57:53;;;;;;;5.18;3.97;;;;;;;24.37;54.08;94794.00;4219237;28;20051;-51
2022/06/14 10:00:17;;;;;;;9.73;4.40;;;;;;;24.30;54.54;94802.19;4212055;28;20056;-51
2022/06/14 10:02:24;;;;;;;;;;;;;;;24.44;53.65;94797.34;4213351;28;20051;-51
2022/06/14 10:05:08;;;;;;;6.35;4.50;;;;;;;24.25;52.45;94804.78;4210148;28;19920;-50
2022/06/14 10:07:31;;;;;;;9.68;2.90;;;;;;;23.61;46.69;94816.41;4221613;28;20052;-50
2022/06/14 10:09:57;;;;;;;6.43;3.10;;;;;;;23.08;47.43;94804.09;4209337;28;20051;-50
2022/06/14 10:12:18;;;;;;;8.45;2.90;;;;;;;22.80;47.89;94810.13;4210052;28;20056;-53
2022/06/14 10:14:31;;;;;;;3.75;2.83;;;;;;;22.64;47.82;94803.63;4198007;28;20044;-49
2022/06/14 10:16:46;;;;;;;5.53;3.08;;;;;;;22.45;47.56;94811.72;4208394;28;20117;-54
2022/06/14 10:19:10;;;;;;;4.38;2.72;;;;;;;21.99;47.01;94813.22;4209542;28;20091;-51
2022/06/14 10:21:22;;;;;;;11.90;3.30;;;;;;;21.98;47.44;94816.13;4194332;28;20052;-58
2022/06/14 10:23:36;;;;;;;4.85;2.72;;;;;;;21.92;48.30;94801.03;4184380;28;20060;-56
2022/06/14 10:28:44;;;;;;;7.45;3.30;;;;;;;22.06;47.93;94813.94;4214587;27;20454;-57
2022/06/14 10:31:09;;;;;;;5.38;2.70;;;;;;;21.83;47.96;94820.03;4186539;28;20044;-56
2022/06/14 10:33:23;;;;;;;5.55;2.50;;;;;;;21.82;47.91;94807.72;4211193;28;20131;-54
2022/06/14 10:35:33;;;;;;;7.35;3.20;;;;;;;21.80;48.60;94807.13;4200228;28;20052;-57
2022/06/14 10:37:47;;;;;;;4.90;2.67;;;;;;;21.48;48.45;94802.00;4188678;28;20609;-57
2022/06/14 10:39:55;;;;;;;5.90;2.85;;;;;;;21.37;48.38;94796.59;4197164;28;20058;-58